sensor_id;sensor_type;location;lat;lon;timestamp;temperature;humidity
17887;DHT22;9069;52.044;7.472;2023-12-20T00:02:12;10.70;99.90
17887;DHT22;9069;52.044;7.472;2023-12-20T00:04:39;10.60;99.90
17887;DHT22;9069;52.044;7.472;2023-12-20T00:07:06;10.60;99.90
17887;DHT22;9069;52.044;7.472;2023-12-20T00:09:33;10.50;99.90
17887;DHT22;9069;52.044;7.472;2023-12-20T00:12:00;10.50;99.90
17887;DHT22;9069;52.044;7.472;2023-12-20T00:14:28;10.50;99.90
17887;DHT22;9069;52.044;7.472;2023-12-20T00:16:55;10.50;99.90
17887;DHT22;9069;52.044;7.472;2023-12-20T00:19:22;10.50;99.90
17887;DHT22;9069;52.044;7.472;2023-12-20T00:21:49;10.50;99.90
17887;DHT22;9069;52.044;7.472;2023-12-20T00:24:16;10.50;99.90
17887;DHT22;9069;52.044;7.472;2023-12-20T00:26:43;10.50;99.90
17887;DHT22;9069;52.044;7.472;2023-12-20T00:29:10;10.50;99.90
17887;DHT22;9069;52.044;7.472;2023-12-20T00:31:37;10.50;99.90
17887;DHT22;9069;52.044;7.472;2023-12-20T00:34:04;10.50;99.90
17887;DHT22;9069;52.044;7.472;2023-12-20T00:36:31;10.50;99.90
17887;DHT22;9069;52.044;7.472;2023-12-20T00:38:58;10.50;99.90
17887;DHT22;9069;52.044;7.472;2023-12-20T00:41:25;10.50;99.90
17887;DHT22;9069;52.044;7.472;2023-12-20T00:43:52;10.50;99.90
17887;DHT22;9069;52.044;7.472;2023-12-20T00:46:19;10.50;99.90
17887;DHT22;9069;52.044;7.472;2023-12-20T00:48:46;10.50;99.90
17887;DHT22;9069;52.044;7.472;2023-12-20T00:51:13;10.50;99.90
17887;DHT22;9069;52.044;7.472;2023-12-20T00:53:40;10.50;99.90
17887;DHT22;9069;52.044;7.472;2023-12-20T00:56:06;10.40;99.90
17887;DHT22;9069;52.044;7.472;2023-12-20T00:58:33;10.40;99.90
17887;DHT22;9069;52.044;7.472;2023-12-20T01:01:03;10.40;99.90
17887;DHT22;9069;52.044;7.472;2023-12-20T01:03:30;10.40;99.90
17887;DHT22;9069;52.044;7.472;2023-12-20T01:05:57;10.40;99.90
17887;DHT22;9069;52.044;7.472;2023-12-20T01:08:24;10.40;99.90
17887;DHT22;9069;52.044;7.472;2023-12-20T01:10:51;10.30;99.90
17887;DHT22;9069;52.044;7.472;2023-12-20T01:13:18;10.30;99.90
17887;DHT22;9069;52.044;7.472;2023-12-20T01:15:45;10.40;99.90
17887;DHT22;9069;52.044;7.472;2023-12-20T01:18:14;10.30;99.90
17887;DHT22;9069;52.044;7.472;2023-12-20T01:20:41;10.30;99.90
17887;DHT22;9069;52.044;7.472;2023-12-20T01:23:08;10.30;99.90
17887;DHT22;9069;52.044;7.472;2023-12-20T01:25:35;10.20;99.90
17887;DHT22;9069;52.044;7.472;2023-12-20T01:28:02;10.20;99.90
17887;DHT22;9069;52.044;7.472;2023-12-20T01:30:30;10.20;99.90
17887;DHT22;9069;52.044;7.472;2023-12-20T01:32:58;10.20;99.90
17887;DHT22;9069;52.044;7.472;2023-12-20T01:35:25;10.20;99.90
17887;DHT22;9069;52.044;7.472;2023-12-20T01:37:51;10.10;99.90
17887;DHT22;9069;52.044;7.472;2023-12-20T01:40:19;10.10;99.90
17887;DHT22;9069;52.044;7.472;2023-12-20T01:42:46;10.10;99.90
17887;DHT22;9069;52.044;7.472;2023-12-20T01:45:13;10.10;99.90
17887;DHT22;9069;52.044;7.472;2023-12-20T01:47:40;10.10;99.90
17887;DHT22;9069;52.044;7.472;2023-12-20T01:50:08;10.00;99.90
17887;DHT22;9069;52.044;7.472;2023-12-20T01:52:35;10.00;99.90
17887;DHT22;9069;52.044;7.472;2023-12-20T01:55:03;10.00;99.90
17887;DHT22;9069;52.044;7.472;2023-12-20T01:57:38;10.00;99.90
17887;DHT22;9069;52.044;7.472;2023-12-20T02:00:06;10.00;99.90
17887;DHT22;9069;52.044;7.472;2023-12-20T02:02:33;10.00;99.90
17887;DHT22;9069;52.044;7.472;2023-12-20T02:05:01;10.00;99.90
17887;DHT22;9069;52.044;7.472;2023-12-20T02:07:31;9.90;99.90
17887;DHT22;9069;52.044;7.472;2023-12-20T02:09:58;9.90;99.90
17887;DHT22;9069;52.044;7.472;2023-12-20T02:12:24;9.90;99.90
17887;DHT22;9069;52.044;7.472;2023-12-20T02:14:51;9.90;99.90
17887;DHT22;9069;52.044;7.472;2023-12-20T02:17:18;9.90;99.90
17887;DHT22;9069;52.044;7.472;2023-12-20T02:19:45;9.90;99.90
17887;DHT22;9069;52.044;7.472;2023-12-20T02:22:13;9.80;99.90
17887;DHT22;9069;52.044;7.472;2023-12-20T02:24:40;9.90;99.90
17887;DHT22;9069;52.044;7.472;2023-12-20T02:27:07;9.80;99.90
17887;DHT22;9069;52.044;7.472;2023-12-20T02:29:35;9.80;99.90
17887;DHT22;9069;52.044;7.472;2023-12-20T02:32:02;9.80;99.90
17887;DHT22;9069;52.044;7.472;2023-12-20T02:34:29;9.70;99.90
17887;DHT22;9069;52.044;7.472;2023-12-20T02:36:56;9.70;99.90
17887;DHT22;9069;52.044;7.472;2023-12-20T02:39:23;9.70;99.90
17887;DHT22;9069;52.044;7.472;2023-12-20T02:41:50;9.70;99.90
17887;DHT22;9069;52.044;7.472;2023-12-20T02:44:17;9.70;99.90
17887;DHT22;9069;52.044;7.472;2023-12-20T02:46:44;9.70;99.90
17887;DHT22;9069;52.044;7.472;2023-12-20T02:49:11;9.70;99.90
17887;DHT22;9069;52.044;7.472;2023-12-20T02:51:38;9.60;99.90
17887;DHT22;9069;52.044;7.472;2023-12-20T02:54:05;9.60;99.90
17887;DHT22;9069;52.044;7.472;2023-12-20T02:56:33;9.60;99.90
17887;DHT22;9069;52.044;7.472;2023-12-20T02:59:00;9.60;99.90
17887;DHT22;9069;52.044;7.472;2023-12-20T03:01:29;9.60;99.90
17887;DHT22;9069;52.044;7.472;2023-12-20T03:03:56;9.70;99.90
17887;DHT22;9069;52.044;7.472;2023-12-20T03:06:24;9.60;99.90
17887;DHT22;9069;52.044;7.472;2023-12-20T03:08:51;9.60;99.90
17887;DHT22;9069;52.044;7.472;2023-12-20T03:11:18;9.60;99.90
17887;DHT22;9069;52.044;7.472;2023-12-20T03:13:45;9.60;99.90
17887;DHT22;9069;52.044;7.472;2023-12-20T03:16:13;9.50;99.90
17887;DHT22;9069;52.044;7.472;2023-12-20T03:18:40;9.50;99.90
17887;DHT22;9069;52.044;7.472;2023-12-20T03:21:07;9.50;99.90
17887;DHT22;9069;52.044;7.472;2023-12-20T03:23:34;9.50;99.90
17887;DHT22;9069;52.044;7.472;2023-12-20T03:26:01;9.50;99.90
17887;DHT22;9069;52.044;7.472;2023-12-20T03:28:32;9.50;99.90
17887;DHT22;9069;52.044;7.472;2023-12-20T03:30:59;9.50;99.90
17887;DHT22;9069;52.044;7.472;2023-12-20T03:33:29;9.50;99.90
17887;DHT22;9069;52.044;7.472;2023-12-20T03:35:56;9.40;99.90
17887;DHT22;9069;52.044;7.472;2023-12-20T03:38:23;9.40;99.90
17887;DHT22;9069;52.044;7.472;2023-12-20T03:40:50;9.40;99.90
17887;DHT22;9069;52.044;7.472;2023-12-20T03:43:17;9.40;99.90
17887;DHT22;9069;52.044;7.472;2023-12-20T03:45:44;9.40;99.90
17887;DHT22;9069;52.044;7.472;2023-12-20T03:48:12;9.40;99.90
17887;DHT22;9069;52.044;7.472;2023-12-20T03:50:39;9.40;99.90
17887;DHT22;9069;52.044;7.472;2023-12-20T03:53:06;9.40;99.90
17887;DHT22;9069;52.044;7.472;2023-12-20T03:55:33;9.00;99.90
17887;DHT22;9069;52.044;7.472;2023-12-20T03:57:59;9.40;99.90
17887;DHT22;9069;52.044;7.472;2023-12-20T04:00:27;9.40;99.90
17887;DHT22;9069;52.044;7.472;2023-12-20T04:02:54;9.40;99.90
17887;DHT22;9069;52.044;7.472;2023-12-20T04:05:21;9.40;99.90
17887;DHT22;9069;52.044;7.472;2023-12-20T04:07:48;9.40;99.90
17887;DHT22;9069;52.044;7.472;2023-12-20T04:10:17;9.40;99.90
17887;DHT22;9069;52.044;7.472;2023-12-20T04:12:43;9.40;99.90
17887;DHT22;9069;52.044;7.472;2023-12-20T04:15:10;9.40;99.90
17887;DHT22;9069;52.044;7.472;2023-12-20T04:17:38;9.30;99.90
17887;DHT22;9069;52.044;7.472;2023-12-20T04:20:07;9.40;99.90
17887;DHT22;9069;52.044;7.472;2023-12-20T04:22:34;9.40;99.90
17887;DHT22;9069;52.044;7.472;2023-12-20T04:25:02;9.40;99.90
17887;DHT22;9069;52.044;7.472;2023-12-20T04:27:29;9.40;99.90
17887;DHT22;9069;52.044;7.472;2023-12-20T04:29:56;9.40;99.90
17887;DHT22;9069;52.044;7.472;2023-12-20T04:32:23;9.40;99.90
17887;DHT22;9069;52.044;7.472;2023-12-20T04:34:50;9.40;99.90
17887;DHT22;9069;52.044;7.472;2023-12-20T04:37:17;9.40;99.90
17887;DHT22;9069;52.044;7.472;2023-12-20T04:39:44;9.40;99.90
17887;DHT22;9069;52.044;7.472;2023-12-20T04:42:11;9.40;99.90
17887;DHT22;9069;52.044;7.472;2023-12-20T04:44:38;9.40;99.90
17887;DHT22;9069;52.044;7.472;2023-12-20T04:47:04;9.40;99.90
17887;DHT22;9069;52.044;7.472;2023-12-20T04:49:31;9.40;99.90
17887;DHT22;9069;52.044;7.472;2023-12-20T04:51:58;9.40;99.90
17887;DHT22;9069;52.044;7.472;2023-12-20T04:54:25;9.40;99.90
17887;DHT22;9069;52.044;7.472;2023-12-20T04:56:52;9.40;99.90
17887;DHT22;9069;52.044;7.472;2023-12-20T04:59:19;9.40;99.90
17887;DHT22;9069;52.044;7.472;2023-12-20T05:01:46;9.40;99.90
17887;DHT22;9069;52.044;7.472;2023-12-20T05:04:13;9.40;99.90
17887;DHT22;9069;52.044;7.472;2023-12-20T05:06:39;9.40;99.90
17887;DHT22;9069;52.044;7.472;2023-12-20T05:09:32;9.60;99.90
17887;DHT22;9069;52.044;7.472;2023-12-20T05:11:59;9.40;99.90
17887;DHT22;9069;52.044;7.472;2023-12-20T05:14:27;9.40;99.90
17887;DHT22;9069;52.044;7.472;2023-12-20T05:16:54;9.50;99.90
17887;DHT22;9069;52.044;7.472;2023-12-20T05:19:20;9.50;99.90
17887;DHT22;9069;52.044;7.472;2023-12-20T05:21:47;9.50;99.90
17887;DHT22;9069;52.044;7.472;2023-12-20T05:24:14;9.50;99.90
17887;DHT22;9069;52.044;7.472;2023-12-20T05:26:41;9.50;99.90
17887;DHT22;9069;52.044;7.472;2023-12-20T05:29:08;9.50;99.90
17887;DHT22;9069;52.044;7.472;2023-12-20T05:31:35;9.50;99.90
17887;DHT22;9069;52.044;7.472;2023-12-20T05:34:02;9.50;99.90
17887;DHT22;9069;52.044;7.472;2023-12-20T05:36:29;9.50;99.90
17887;DHT22;9069;52.044;7.472;2023-12-20T05:38:55;9.50;99.90
17887;DHT22;9069;52.044;7.472;2023-12-20T05:41:22;9.50;99.90
17887;DHT22;9069;52.044;7.472;2023-12-20T05:43:49;9.50;99.90
17887;DHT22;9069;52.044;7.472;2023-12-20T05:46:16;9.50;99.90
17887;DHT22;9069;52.044;7.472;2023-12-20T05:48:43;9.50;99.90
17887;DHT22;9069;52.044;7.472;2023-12-20T05:51:13;9.50;99.90
17887;DHT22;9069;52.044;7.472;2023-12-20T05:53:40;9.50;99.90
17887;DHT22;9069;52.044;7.472;2023-12-20T05:56:07;9.50;99.90
17887;DHT22;9069;52.044;7.472;2023-12-20T05:58:34;9.60;99.90
17887;DHT22;9069;52.044;7.472;2023-12-20T06:01:04;9.50;99.90
17887;DHT22;9069;52.044;7.472;2023-12-20T06:03:31;9.50;99.90
17887;DHT22;9069;52.044;7.472;2023-12-20T06:05:58;9.60;99.90
17887;DHT22;9069;52.044;7.472;2023-12-20T06:08:41;9.50;99.90
17887;DHT22;9069;52.044;7.472;2023-12-20T06:11:10;9.50;99.90
17887;DHT22;9069;52.044;7.472;2023-12-20T06:13:37;9.50;99.90
17887;DHT22;9069;52.044;7.472;2023-12-20T06:16:05;9.60;99.90
17887;DHT22;9069;52.044;7.472;2023-12-20T06:18:33;9.60;99.90
17887;DHT22;9069;52.044;7.472;2023-12-20T06:21:00;9.60;99.90
17887;DHT22;9069;52.044;7.472;2023-12-20T06:23:33;9.60;99.90
17887;DHT22;9069;52.044;7.472;2023-12-20T06:26:00;9.60;99.90
17887;DHT22;9069;52.044;7.472;2023-12-20T06:28:31;9.60;99.90
17887;DHT22;9069;52.044;7.472;2023-12-20T06:30:58;9.70;99.90
17887;DHT22;9069;52.044;7.472;2023-12-20T06:33:33;9.70;99.90
17887;DHT22;9069;52.044;7.472;2023-12-20T06:36:01;9.60;99.90
17887;DHT22;9069;52.044;7.472;2023-12-20T06:38:31;9.60;99.90
17887;DHT22;9069;52.044;7.472;2023-12-20T06:40:58;9.60;99.90
17887;DHT22;9069;52.044;7.472;2023-12-20T06:43:25;9.60;99.90
17887;DHT22;9069;52.044;7.472;2023-12-20T06:46:12;9.60;99.90
17887;DHT22;9069;52.044;7.472;2023-12-20T06:48:40;9.60;99.90
17887;DHT22;9069;52.044;7.472;2023-12-20T06:51:12;9.70;99.90
17887;DHT22;9069;52.044;7.472;2023-12-20T06:53:39;9.60;99.90
17887;DHT22;9069;52.044;7.472;2023-12-20T06:56:06;9.60;99.90
17887;DHT22;9069;52.044;7.472;2023-12-20T06:58:34;9.60;99.90
17887;DHT22;9069;52.044;7.472;2023-12-20T07:01:01;9.60;99.90
17887;DHT22;9069;52.044;7.472;2023-12-20T07:03:28;9.60;99.90
17887;DHT22;9069;52.044;7.472;2023-12-20T07:05:55;9.60;99.90
17887;DHT22;9069;52.044;7.472;2023-12-20T07:08:21;9.60;99.90
17887;DHT22;9069;52.044;7.472;2023-12-20T07:10:48;9.60;99.90
17887;DHT22;9069;52.044;7.472;2023-12-20T07:13:15;9.60;99.90
17887;DHT22;9069;52.044;7.472;2023-12-20T07:15:42;9.60;99.90
17887;DHT22;9069;52.044;7.472;2023-12-20T07:18:10;9.60;99.90
17887;DHT22;9069;52.044;7.472;2023-12-20T07:20:38;9.60;99.90
17887;DHT22;9069;52.044;7.472;2023-12-20T07:23:05;9.60;99.90
17887;DHT22;9069;52.044;7.472;2023-12-20T07:25:32;9.70;99.90
17887;DHT22;9069;52.044;7.472;2023-12-20T07:28:00;9.70;99.90
17887;DHT22;9069;52.044;7.472;2023-12-20T07:30:26;9.60;99.90
17887;DHT22;9069;52.044;7.472;2023-12-20T07:32:54;9.60;99.90
17887;DHT22;9069;52.044;7.472;2023-12-20T07:35:23;9.60;99.90
17887;DHT22;9069;52.044;7.472;2023-12-20T07:37:50;9.60;99.90
17887;DHT22;9069;52.044;7.472;2023-12-20T07:40:16;9.70;99.90
17887;DHT22;9069;52.044;7.472;2023-12-20T07:42:44;9.60;99.90
17887;DHT22;9069;52.044;7.472;2023-12-20T07:45:10;9.60;99.90
17887;DHT22;9069;52.044;7.472;2023-12-20T07:47:38;9.70;99.90
17887;DHT22;9069;52.044;7.472;2023-12-20T07:50:05;9.60;99.90
17887;DHT22;9069;52.044;7.472;2023-12-20T07:52:32;9.60;99.90
17887;DHT22;9069;52.044;7.472;2023-12-20T07:54:59;9.70;99.90
17887;DHT22;9069;52.044;7.472;2023-12-20T07:57:29;9.70;99.90
17887;DHT22;9069;52.044;7.472;2023-12-20T07:59:56;9.70;99.90
17887;DHT22;9069;52.044;7.472;2023-12-20T08:02:23;9.70;99.90
17887;DHT22;9069;52.044;7.472;2023-12-20T08:04:49;9.70;99.90
17887;DHT22;9069;52.044;7.472;2023-12-20T08:07:16;9.70;99.90
17887;DHT22;9069;52.044;7.472;2023-12-20T08:09:43;9.80;99.90
17887;DHT22;9069;52.044;7.472;2023-12-20T08:12:10;9.70;99.90
17887;DHT22;9069;52.044;7.472;2023-12-20T08:14:38;9.70;99.90
17887;DHT22;9069;52.044;7.472;2023-12-20T08:17:05;9.70;99.90
17887;DHT22;9069;52.044;7.472;2023-12-20T08:19:31;9.70;99.90
17887;DHT22;9069;52.044;7.472;2023-12-20T08:21:58;9.70;99.90
17887;DHT22;9069;52.044;7.472;2023-12-20T08:24:26;9.80;99.90
17887;DHT22;9069;52.044;7.472;2023-12-20T08:26:53;9.80;99.90
17887;DHT22;9069;52.044;7.472;2023-12-20T08:29:20;9.80;99.90
17887;DHT22;9069;52.044;7.472;2023-12-20T08:31:52;9.80;99.90
17887;DHT22;9069;52.044;7.472;2023-12-20T08:34:19;9.80;99.90
17887;DHT22;9069;52.044;7.472;2023-12-20T08:36:50;9.80;99.90
17887;DHT22;9069;52.044;7.472;2023-12-20T08:39:17;9.80;99.90
17887;DHT22;9069;52.044;7.472;2023-12-20T08:41:44;9.90;99.90
17887;DHT22;9069;52.044;7.472;2023-12-20T08:44:11;9.90;99.90
17887;DHT22;9069;52.044;7.472;2023-12-20T08:46:38;9.80;99.90
17887;DHT22;9069;52.044;7.472;2023-12-20T08:49:05;9.80;99.90
17887;DHT22;9069;52.044;7.472;2023-12-20T08:51:32;9.90;99.90
17887;DHT22;9069;52.044;7.472;2023-12-20T08:54:00;9.90;99.90
17887;DHT22;9069;52.044;7.472;2023-12-20T08:56:28;9.90;99.90
17887;DHT22;9069;52.044;7.472;2023-12-20T08:58:54;9.90;99.90
17887;DHT22;9069;52.044;7.472;2023-12-20T09:01:21;9.90;99.90
17887;DHT22;9069;52.044;7.472;2023-12-20T09:03:48;9.90;99.90
17887;DHT22;9069;52.044;7.472;2023-12-20T09:06:15;10.00;99.90
17887;DHT22;9069;52.044;7.472;2023-12-20T09:08:42;10.00;99.90
17887;DHT22;9069;52.044;7.472;2023-12-20T09:11:09;10.00;99.90
17887;DHT22;9069;52.044;7.472;2023-12-20T09:13:37;10.00;99.90
17887;DHT22;9069;52.044;7.472;2023-12-20T09:16:04;10.00;99.90
17887;DHT22;9069;52.044;7.472;2023-12-20T09:18:31;10.00;99.90
17887;DHT22;9069;52.044;7.472;2023-12-20T09:20:58;10.00;99.90
17887;DHT22;9069;52.044;7.472;2023-12-20T09:23:25;10.00;99.90
17887;DHT22;9069;52.044;7.472;2023-12-20T09:25:52;10.00;99.90
17887;DHT22;9069;52.044;7.472;2023-12-20T09:28:22;10.10;99.90
17887;DHT22;9069;52.044;7.472;2023-12-20T09:30:49;10.00;99.90
17887;DHT22;9069;52.044;7.472;2023-12-20T09:33:16;10.00;99.90
17887;DHT22;9069;52.044;7.472;2023-12-20T09:35:43;10.10;99.90
17887;DHT22;9069;52.044;7.472;2023-12-20T09:38:11;10.10;99.90
17887;DHT22;9069;52.044;7.472;2023-12-20T09:40:41;10.10;99.90
17887;DHT22;9069;52.044;7.472;2023-12-20T09:43:14;10.10;99.90
17887;DHT22;9069;52.044;7.472;2023-12-20T09:45:45;10.00;99.90
17887;DHT22;9069;52.044;7.472;2023-12-20T09:48:13;10.20;99.90
17887;DHT22;9069;52.044;7.472;2023-12-20T09:50:41;10.10;99.90
17887;DHT22;9069;52.044;7.472;2023-12-20T09:53:15;10.20;99.90
17887;DHT22;9069;52.044;7.472;2023-12-20T09:55:43;10.10;99.90
17887;DHT22;9069;52.044;7.472;2023-12-20T09:58:10;10.20;99.90
17887;DHT22;9069;52.044;7.472;2023-12-20T10:00:37;10.20;99.90
17887;DHT22;9069;52.044;7.472;2023-12-20T10:03:06;10.20;99.90
17887;DHT22;9069;52.044;7.472;2023-12-20T10:05:34;10.80;99.90
17887;DHT22;9069;52.044;7.472;2023-12-20T10:08:01;10.20;99.90
17887;DHT22;9069;52.044;7.472;2023-12-20T10:10:30;10.20;99.90
17887;DHT22;9069;52.044;7.472;2023-12-20T10:13:12;10.20;99.90
17887;DHT22;9069;52.044;7.472;2023-12-20T10:15:39;10.20;99.90
17887;DHT22;9069;52.044;7.472;2023-12-20T10:18:08;10.20;99.90
17887;DHT22;9069;52.044;7.472;2023-12-20T10:20:35;10.20;99.90
17887;DHT22;9069;52.044;7.472;2023-12-20T10:23:02;10.30;99.90
17887;DHT22;9069;52.044;7.472;2023-12-20T10:25:32;10.20;99.90
17887;DHT22;9069;52.044;7.472;2023-12-20T10:28:14;10.20;99.90
17887;DHT22;9069;52.044;7.472;2023-12-20T10:30:41;10.20;99.90
17887;DHT22;9069;52.044;7.472;2023-12-20T10:33:10;10.20;99.90
17887;DHT22;9069;52.044;7.472;2023-12-20T10:35:39;10.30;99.90
17887;DHT22;9069;52.044;7.472;2023-12-20T10:38:11;10.30;99.90
17887;DHT22;9069;52.044;7.472;2023-12-20T10:40:41;10.30;99.90
17887;DHT22;9069;52.044;7.472;2023-12-20T10:43:08;10.30;99.90
17887;DHT22;9069;52.044;7.472;2023-12-20T10:45:36;10.30;99.90
17887;DHT22;9069;52.044;7.472;2023-12-20T10:48:03;10.40;99.90
17887;DHT22;9069;52.044;7.472;2023-12-20T10:50:31;10.30;99.90
17887;DHT22;9069;52.044;7.472;2023-12-20T10:52:58;10.30;99.90
17887;DHT22;9069;52.044;7.472;2023-12-20T10:55:27;10.30;99.90
17887;DHT22;9069;52.044;7.472;2023-12-20T10:58:01;10.30;99.90
17887;DHT22;9069;52.044;7.472;2023-12-20T11:00:29;10.40;99.90
17887;DHT22;9069;52.044;7.472;2023-12-20T11:03:00;10.40;99.90
17887;DHT22;9069;52.044;7.472;2023-12-20T11:05:51;10.40;99.90
17887;DHT22;9069;52.044;7.472;2023-12-20T11:08:28;10.40;99.90
17887;DHT22;9069;52.044;7.472;2023-12-20T11:11:06;10.40;99.90
17887;DHT22;9069;52.044;7.472;2023-12-20T11:13:53;10.40;99.90
17887;DHT22;9069;52.044;7.472;2023-12-20T11:16:20;10.50;99.90
17887;DHT22;9069;52.044;7.472;2023-12-20T11:18:50;10.40;99.90
17887;DHT22;9069;52.044;7.472;2023-12-20T11:21:17;10.40;99.90
17887;DHT22;9069;52.044;7.472;2023-12-20T11:23:44;10.50;99.90
17887;DHT22;9069;52.044;7.472;2023-12-20T11:26:15;10.50;99.90
17887;DHT22;9069;52.044;7.472;2023-12-20T11:28:44;10.50;99.90
17887;DHT22;9069;52.044;7.472;2023-12-20T11:31:14;10.50;99.90
17887;DHT22;9069;52.044;7.472;2023-12-20T11:33:42;10.50;99.90
17887;DHT22;9069;52.044;7.472;2023-12-20T11:36:14;10.50;99.90
17887;DHT22;9069;52.044;7.472;2023-12-20T11:38:57;10.70;99.90
17887;DHT22;9069;52.044;7.472;2023-12-20T11:41:25;10.50;99.90
17887;DHT22;9069;52.044;7.472;2023-12-20T11:43:55;10.60;99.90
17887;DHT22;9069;52.044;7.472;2023-12-20T11:46:23;10.60;99.90
17887;DHT22;9069;52.044;7.472;2023-12-20T11:48:50;10.60;99.90
17887;DHT22;9069;52.044;7.472;2023-12-20T11:51:18;10.60;99.90
17887;DHT22;9069;52.044;7.472;2023-12-20T11:53:51;10.70;99.90
17887;DHT22;9069;52.044;7.472;2023-12-20T11:56:19;10.70;99.90
17887;DHT22;9069;52.044;7.472;2023-12-20T11:58:46;10.70;99.90
17887;DHT22;9069;52.044;7.472;2023-12-20T12:01:19;10.80;99.90
17887;DHT22;9069;52.044;7.472;2023-12-20T12:03:46;10.80;99.90
17887;DHT22;9069;52.044;7.472;2023-12-20T12:06:13;10.80;99.90
17887;DHT22;9069;52.044;7.472;2023-12-20T12:08:41;10.80;99.90
17887;DHT22;9069;52.044;7.472;2023-12-20T12:11:07;10.90;99.90
17887;DHT22;9069;52.044;7.472;2023-12-20T12:13:34;10.90;99.90
17887;DHT22;9069;52.044;7.472;2023-12-20T12:16:02;10.90;99.90
17887;DHT22;9069;52.044;7.472;2023-12-20T12:18:29;10.90;99.90
17887;DHT22;9069;52.044;7.472;2023-12-20T12:21:02;10.90;99.90
17887;DHT22;9069;52.044;7.472;2023-12-20T12:23:36;10.90;99.90
17887;DHT22;9069;52.044;7.472;2023-12-20T12:26:06;10.90;99.90
17887;DHT22;9069;52.044;7.472;2023-12-20T12:28:34;10.90;99.90
17887;DHT22;9069;52.044;7.472;2023-12-20T12:31:01;10.90;99.90
17887;DHT22;9069;52.044;7.472;2023-12-20T12:33:29;11.00;99.90
17887;DHT22;9069;52.044;7.472;2023-12-20T12:35:56;11.00;99.90
17887;DHT22;9069;52.044;7.472;2023-12-20T12:38:24;11.00;99.90
17887;DHT22;9069;52.044;7.472;2023-12-20T12:40:51;11.10;99.90
17887;DHT22;9069;52.044;7.472;2023-12-20T12:43:20;11.10;99.90
17887;DHT22;9069;52.044;7.472;2023-12-20T12:45:47;11.00;99.90
17887;DHT22;9069;52.044;7.472;2023-12-20T12:48:14;11.10;99.90
17887;DHT22;9069;52.044;7.472;2023-12-20T12:50:41;11.10;99.90
17887;DHT22;9069;52.044;7.472;2023-12-20T12:53:08;11.10;99.90
17887;DHT22;9069;52.044;7.472;2023-12-20T12:55:35;11.20;99.90
17887;DHT22;9069;52.044;7.472;2023-12-20T12:58:03;11.10;99.90
17887;DHT22;9069;52.044;7.472;2023-12-20T13:00:30;11.10;99.90
17887;DHT22;9069;52.044;7.472;2023-12-20T13:02:57;11.00;99.90
17887;DHT22;9069;52.044;7.472;2023-12-20T13:05:23;11.00;99.90
17887;DHT22;9069;52.044;7.472;2023-12-20T13:07:50;11.20;99.90
17887;DHT22;9069;52.044;7.472;2023-12-20T13:10:18;11.00;99.90
17887;DHT22;9069;52.044;7.472;2023-12-20T13:12:45;11.10;99.90
17887;DHT22;9069;52.044;7.472;2023-12-20T13:15:13;11.00;99.90
17887;DHT22;9069;52.044;7.472;2023-12-20T13:17:39;11.00;99.90
17887;DHT22;9069;52.044;7.472;2023-12-20T13:20:07;11.00;99.90
17887;DHT22;9069;52.044;7.472;2023-12-20T13:22:34;10.90;99.90
17887;DHT22;9069;52.044;7.472;2023-12-20T13:25:02;10.90;99.90
17887;DHT22;9069;52.044;7.472;2023-12-20T13:27:29;10.90;99.90
17887;DHT22;9069;52.044;7.472;2023-12-20T13:29:57;10.90;99.90
17887;DHT22;9069;52.044;7.472;2023-12-20T13:32:24;10.80;99.90
17887;DHT22;9069;52.044;7.472;2023-12-20T13:34:51;10.80;99.90
17887;DHT22;9069;52.044;7.472;2023-12-20T13:37:18;10.80;99.90
17887;DHT22;9069;52.044;7.472;2023-12-20T13:39:45;10.70;99.90
17887;DHT22;9069;52.044;7.472;2023-12-20T13:42:12;10.70;99.90
17887;DHT22;9069;52.044;7.472;2023-12-20T13:44:40;10.70;99.90
17887;DHT22;9069;52.044;7.472;2023-12-20T13:47:06;10.60;99.90
17887;DHT22;9069;52.044;7.472;2023-12-20T13:49:34;10.60;99.90
17887;DHT22;9069;52.044;7.472;2023-12-20T13:52:02;10.60;99.90
17887;DHT22;9069;52.044;7.472;2023-12-20T13:54:30;10.60;99.90
17887;DHT22;9069;52.044;7.472;2023-12-20T13:56:57;10.50;99.90
17887;DHT22;9069;52.044;7.472;2023-12-20T13:59:38;10.50;99.90
17887;DHT22;9069;52.044;7.472;2023-12-20T14:02:05;10.50;99.90
17887;DHT22;9069;52.044;7.472;2023-12-20T14:04:32;10.50;99.90
17887;DHT22;9069;52.044;7.472;2023-12-20T14:07:09;10.50;99.90
17887;DHT22;9069;52.044;7.472;2023-12-20T14:09:38;10.50;99.90
17887;DHT22;9069;52.044;7.472;2023-12-20T14:12:05;10.50;99.90
17887;DHT22;9069;52.044;7.472;2023-12-20T14:14:32;8.80;99.90
17887;DHT22;9069;52.044;7.472;2023-12-20T14:16:59;10.50;99.90
17887;DHT22;9069;52.044;7.472;2023-12-20T14:19:26;10.50;99.90
17887;DHT22;9069;52.044;7.472;2023-12-20T14:21:54;10.50;99.90
17887;DHT22;9069;52.044;7.472;2023-12-20T14:24:21;10.50;99.90
17887;DHT22;9069;52.044;7.472;2023-12-20T14:26:47;10.50;99.90
17887;DHT22;9069;52.044;7.472;2023-12-20T14:29:14;10.50;99.90
17887;DHT22;9069;52.044;7.472;2023-12-20T14:31:41;10.50;99.90
17887;DHT22;9069;52.044;7.472;2023-12-20T14:34:08;10.50;99.90
17887;DHT22;9069;52.044;7.472;2023-12-20T14:36:35;10.50;99.90
17887;DHT22;9069;52.044;7.472;2023-12-20T14:39:02;10.50;99.90
17887;DHT22;9069;52.044;7.472;2023-12-20T14:41:30;10.60;99.90
17887;DHT22;9069;52.044;7.472;2023-12-20T14:43:58;10.60;99.90
17887;DHT22;9069;52.044;7.472;2023-12-20T14:46:27;10.60;99.90
17887;DHT22;9069;52.044;7.472;2023-12-20T14:48:55;10.60;99.90
17887;DHT22;9069;52.044;7.472;2023-12-20T14:51:22;10.60;99.90
17887;DHT22;9069;52.044;7.472;2023-12-20T14:53:49;10.60;99.90
17887;DHT22;9069;52.044;7.472;2023-12-20T14:56:16;10.60;99.90
17887;DHT22;9069;52.044;7.472;2023-12-20T14:58:43;10.60;99.90
17887;DHT22;9069;52.044;7.472;2023-12-20T15:01:10;10.60;99.90
17887;DHT22;9069;52.044;7.472;2023-12-20T15:03:37;10.60;99.90
17887;DHT22;9069;52.044;7.472;2023-12-20T15:06:06;10.60;99.90
17887;DHT22;9069;52.044;7.472;2023-12-20T15:08:33;10.60;99.90
17887;DHT22;9069;52.044;7.472;2023-12-20T15:11:02;10.60;99.90
17887;DHT22;9069;52.044;7.472;2023-12-20T15:13:31;10.60;99.90
17887;DHT22;9069;52.044;7.472;2023-12-20T15:15:58;10.60;99.90
17887;DHT22;9069;52.044;7.472;2023-12-20T15:18:25;10.60;99.90
17887;DHT22;9069;52.044;7.472;2023-12-20T15:20:52;10.60;99.90
17887;DHT22;9069;52.044;7.472;2023-12-20T15:23:19;10.60;99.90
17887;DHT22;9069;52.044;7.472;2023-12-20T15:25:47;10.70;99.90
17887;DHT22;9069;52.044;7.472;2023-12-20T15:28:14;10.60;99.90
17887;DHT22;9069;52.044;7.472;2023-12-20T15:30:41;10.60;99.90
17887;DHT22;9069;52.044;7.472;2023-12-20T15:33:08;10.60;99.90
17887;DHT22;9069;52.044;7.472;2023-12-20T15:35:35;10.70;99.90
17887;DHT22;9069;52.044;7.472;2023-12-20T15:38:02;10.70;99.90
17887;DHT22;9069;52.044;7.472;2023-12-20T15:40:29;10.70;99.90
17887;DHT22;9069;52.044;7.472;2023-12-20T15:42:56;10.60;99.90
17887;DHT22;9069;52.044;7.472;2023-12-20T15:45:24;10.60;99.90
17887;DHT22;9069;52.044;7.472;2023-12-20T15:47:51;10.60;99.90
17887;DHT22;9069;52.044;7.472;2023-12-20T15:50:18;10.70;99.90
17887;DHT22;9069;52.044;7.472;2023-12-20T15:52:45;10.70;99.90
17887;DHT22;9069;52.044;7.472;2023-12-20T15:55:12;10.70;99.90
17887;DHT22;9069;52.044;7.472;2023-12-20T15:57:39;10.80;99.90